Kona International At Keahole, HI

10:21 PM HST on February 05, 2016 (GMT -1000)
Kona International At Keahole | | Change Station
CLOSE
Current Station
Airport
Location: Keahole Point,
Elevation: 43 ft
Nearby Weather Stations

Elev 43 ft 19.74 °N, 156.05 °W | Updated 1 hour ago

Clear
Clear
78 °F
Feels Like 78 °F
N
7
Wind Variable Wind from North

Today
High -- | Low -- °F
--% Chance of Precip.
Yesterday
High -- | Low -- °F
Precip. -- in
Pressure 30.00 in
Visibility 10.0 miles
Clouds Clear
Dew Point 65 °F
Humidity 64%
Rainfall 0.00 in
Snow Depth Not available.
6:58 AM 6:18 PM
Waning Crescent, 7% visible
METAR PHKO 060653Z 36006KT 10SM CLR 26/18 A2999 RMK AO2 SLP157 T02560183
Pressure 30.00 in
Visibility 10.0 miles
Clouds Clear
Dew Point 65 °F
Humidity 64%
Rainfall 0.00 in
Snow Depth Not available.
6:58 AM 6:18 PM
Waning Crescent, 7% visible
METAR PHKO 060653Z 36006KT 10SM CLR 26/18 A2999 RMK AO2 SLP157 T02560183

10-Day Weather Forecast

Almanac

Astronomy

Feb. 05, 2016 Rise Set
Actual Time
Civil Twilight
Nautical Twilight
Astronomical Twilight
Moon
Length of Visible Light
Length of Day
Tomorrow will be .
, % of the Moon is Illuminated

Today's Extremes

State Highs State Lows

Community

WunderPhotos

Upload Photos

1,890,933 photos uploaded!

WunderBlog® & News

Nearby

Air Quality

  Air Quality AQ Index Pollutant
Not available.

Snow Depth

Station Depth Elevation

Earthquake Activity

City Distance Mag. Time & Date
Minimum magnitude displayed is 2.5.

Coastal Water Temperatures

Place Temperature

Stations

Nearby Weather Stations

Station Location Temp. Windchill Dew Point Humidity Wind Precip. Elev Updated Type
                   

Watches & Warnings

There are currently no watches in effect.